Time;durP1;ratioP1;P1;durP2;ratioP2;P2;SDS_P1;SDS_P2;PMS_P1;PMS_P2;Temp;Humidity;BMP_temperature;BMP_pressure;BME280_temperature;BME280_humidity;BME280_pressure;Samples;Min_cycle;Max_cycle;Signal;HPM_P1;HPM_P2
2022/04/24 00:01:08;;;;;;;3.75;2.60;;;;;;;19.77;25.23;99710.69;5004444;28;20090;-76
2022/04/24 00:03:35;;;;;;;3.90;2.80;;;;;;;19.77;25.36;99727.22;5002654;28;20065;-76
2022/04/24 00:06:01;;;;;;;4.68;2.67;;;;;;;19.75;25.16;99715.56;5002356;28;20129;-76
2022/04/24 00:08:28;;;;;;;3.70;2.78;;;;;;;19.72;25.18;99716.78;4999000;28;20046;-76
2022/04/24 00:10:55;;;;;;;3.67;2.63;;;;;;;19.70;25.07;99716.09;5004464;28;20070;-76
2022/04/24 00:13:23;;;;;;;3.47;2.70;;;;;;;19.69;25.07;99711.63;4976194;28;20069;-76
2022/04/24 00:15:51;;;;;;;3.55;2.58;;;;;;;19.68;25.46;99712.69;4982029;28;20097;-76
2022/04/24 00:18:17;;;;;;;3.90;2.75;;;;;;;19.64;25.33;99705.00;4989153;28;20050;-76
2022/04/24 00:20:44;;;;;;;4.38;3.15;;;;;;;19.62;25.35;99699.69;4985492;28;20667;-76
2022/04/24 00:23:10;;;;;;;3.95;2.70;;;;;;;19.61;25.48;99703.47;4997235;28;20085;-77
2022/04/24 00:25:37;;;;;;;3.65;2.72;;;;;;;19.58;25.48;99703.88;4980548;28;20054;-77
2022/04/24 00:28:04;;;;;;;4.05;3.03;;;;;;;19.55;25.43;99706.13;4996497;28;20054;-77
2022/04/24 00:30:30;;;;;;;4.22;2.85;;;;;;;19.52;25.68;99701.03;5012430;28;20081;-76
2022/04/24 00:32:57;;;;;;;4.05;2.67;;;;;;;19.50;25.58;99703.94;5003972;28;20050;-76
2022/04/24 00:35:24;;;;;;;3.88;2.90;;;;;;;19.47;25.53;99696.06;4978933;28;20340;-76
2022/04/24 00:37:50;;;;;;;3.60;2.40;;;;;;;19.45;25.38;99703.59;5010089;28;20128;-76
2022/04/24 00:40:19;;;;;;;3.40;2.60;;;;;;;19.41;25.52;99702.28;4992839;28;20486;-76
2022/04/24 00:42:45;;;;;;;3.60;2.60;;;;;;;19.38;25.47;99687.00;4981804;28;20145;-76
2022/04/24 00:45:12;;;;;;;4.88;3.20;;;;;;;19.37;25.46;99700.94;5009107;28;20137;-76
2022/04/24 00:47:41;;;;;;;3.63;2.88;;;;;;;19.36;25.59;99693.72;4976453;28;20126;-76
2022/04/24 00:50:09;;;;;;;4.57;2.90;;;;;;;19.32;25.78;99700.66;4975098;28;20568;-76
2022/04/24 00:52:37;;;;;;;4.43;3.10;;;;;;;19.33;25.50;99702.38;4988358;28;20054;-76
2022/04/24 00:55:05;;;;;;;3.95;2.80;;;;;;;19.28;25.71;99696.56;4986537;28;20111;-76
2022/04/24 00:57:32;;;;;;;3.40;2.65;;;;;;;19.25;25.84;99691.44;4999374;28;20142;-76
2022/04/24 00:59:59;;;;;;;4.85;3.22;;;;;;;19.22;26.17;99686.28;5001801;28;20046;-76
2022/04/24 01:02:25;;;;;;;3.35;2.50;;;;;;;19.19;25.79;99695.78;5000184;28;20107;-76
2022/04/24 01:04:52;;;;;;;3.88;2.70;;;;;;;19.17;26.17;99694.25;4997078;28;20066;-76
2022/04/24 01:07:19;;;;;;;4.15;3.33;;;;;;;19.15;25.96;99688.94;5006246;28;20064;-76
2022/04/24 01:09:45;;;;;;;4.10;2.90;;;;;;;19.13;26.00;99687.41;4981573;28;20086;-76
2022/04/24 01:12:12;;;;;;;4.32;3.10;;;;;;;19.11;25.92;99683.97;5001021;28;20473;-76
2022/04/24 01:14:38;;;;;;;4.40;3.03;;;;;;;19.06;26.28;99684.56;4999339;28;20534;-76
2022/04/24 01:17:06;;;;;;;4.47;3.08;;;;;;;19.03;25.73;99684.91;5004474;28;20096;-76
2022/04/24 01:19:33;;;;;;;4.35;3.22;;;;;;;18.99;25.95;99681.69;4974080;28;20074;-76
2022/04/24 01:21:59;;;;;;;4.18;3.03;;;;;;;18.93;26.23;99693.44;5003185;28;20140;-77
2022/04/24 01:24:28;;;;;;;3.65;2.72;;;;;;;18.92;26.26;99677.97;4992412;28;20050;-77
2022/04/24 01:26:55;;;;;;;4.65;3.00;;;;;;;18.87;26.33;99677.66;4986160;28;20138;-77
2022/04/24 01:29:22;;;;;;;4.45;3.25;;;;;;;18.83;26.33;99686.47;4984543;28;20078;-77
2022/04/24 01:31:49;;;;;;;5.20;3.22;;;;;;;18.77;26.71;99674.31;5007128;28;20591;-77
2022/04/24 01:34:19;;;;;;;5.07;3.22;;;;;;;18.74;26.35;99676.56;4984110;28;20053;-77
2022/04/24 01:36:47;;;;;;;4.65;3.20;;;;;;;18.71;26.33;99675.03;4977545;28;20042;-77
2022/04/24 01:39:15;;;;;;;4.63;3.33;;;;;;;18.67;26.56;99686.59;4982189;28;20058;-77
2022/04/24 01:41:43;;;;;;;4.57;3.47;;;;;;;18.66;26.81;99683.00;4980231;28;20050;-77
2022/04/24 01:44:10;;;;;;;5.95;3.80;;;;;;;18.59;26.87;99680.13;4981912;28;20389;-77
2022/04/24 01:46:36;;;;;;;4.80;3.60;;;;;;;18.56;26.93;99685.97;5003912;28;20476;-77
2022/04/24 01:49:03;;;;;;;4.60;3.45;;;;;;;18.53;26.58;99675.28;4986450;28;20188;-77
2022/04/24 01:51:30;;;;;;;4.90;3.78;;;;;;;18.48;26.89;99677.75;4989267;28;20073;-77
2022/04/24 01:53:57;;;;;;;6.25;3.92;;;;;;;18.42;27.05;99677.63;4979903;28;20546;-77
2022/04/24 01:56:23;;;;;;;5.43;4.10;;;;;;;18.37;27.20;99678.16;4990911;28;20141;-77
2022/04/24 01:58:50;;;;;;;4.85;3.92;;;;;;;18.35;27.07;99682.13;4991263;28;20093;-76
2022/04/24 02:01:16;;;;;;;4.70;3.97;;;;;;;18.29;27.13;99680.94;5008872;28;20125;-77
2022/04/24 02:03:43;;;;;;;5.60;3.85;;;;;;;18.25;26.94;99676.88;4985563;28;20081;-77
2022/04/24 02:06:10;;;;;;;5.03;4.28;;;;;;;18.22;27.16;99686.31;4978099;28;20375;-77
2022/04/24 02:08:37;;;;;;;5.07;3.90;;;;;;;18.16;27.26;99675.19;4976590;28;20057;-77
2022/04/24 02:11:06;;;;;;;5.68;3.80;;;;;;;18.12;27.54;99668.34;5001408;28;20054;-77
2022/04/24 02:13:33;;;;;;;4.88;3.88;;;;;;;18.07;27.24;99679.03;4997547;28;20489;-77
2022/04/24 02:16:01;;;;;;;5.57;4.00;;;;;;;18.01;27.54;99682.50;4984331;28;20121;-77
2022/04/24 02:18:28;;;;;;;7.07;4.00;;;;;;;17.98;27.62;99674.59;5007654;28;20062;-77
2022/04/24 02:20:54;;;;;;;5.35;4.03;;;;;;;17.95;27.42;99674.97;4983300;28;20209;-77
2022/04/24 02:23:21;;;;;;;6.00;4.10;;;;;;;17.90;27.76;99680.97;5003604;28;20137;-77
2022/04/24 02:25:48;;;;;;;5.25;4.35;;;;;;;17.87;27.75;99678.63;4984823;28;20168;-77
2022/04/24 02:28:15;;;;;;;5.63;4.30;;;;;;;17.80;27.79;99683.06;4996459;28;20104;-77
2022/04/24 02:30:42;;;;;;;5.57;4.20;;;;;;;17.75;27.79;99672.63;5011077;28;20450;-77
2022/04/24 02:33:09;;;;;;;5.43;4.05;;;;;;;17.72;28.02;99674.88;5009859;28;20121;-77
2022/04/24 02:35:35;;;;;;;5.10;4.10;;;;;;;17.70;28.00;99674.22;5007552;28;20343;-77
2022/04/24 02:38:02;;;;;;;5.68;4.00;;;;;;;17.66;27.82;99670.94;4977166;28;20557;-77
2022/04/24 02:40:29;;;;;;;6.65;4.28;;;;;;;17.65;28.16;99682.97;4986271;28;20121;-77
2022/04/24 02:42:55;;;;;;;5.60;4.72;;;;;;;17.62;27.96;99679.72;4977982;28;20125;-77
2022/04/24 02:45:22;;;;;;;5.05;4.10;;;;;;;17.59;28.22;99678.16;4994900;28;20125;-77
2022/04/24 02:47:49;;;;;;;5.53;4.40;;;;;;;17.56;28.17;99677.63;4996949;28;20050;-77
2022/04/24 02:50:16;;;;;;;5.55;3.88;;;;;;;17.54;28.18;99682.47;5006565;28;20056;-77
2022/04/24 02:52:53;;;;;;;6.43;4.25;;;;;;;17.51;28.36;99680.91;4982864;28;20460;-77
2022/04/24 02:55:21;;;;;;;5.40;4.28;;;;;;;17.45;28.38;99682.47;4984296;28;20121;-77
2022/04/24 02:57:48;;;;;;;6.38;4.90;;;;;;;17.44;28.77;99679.91;4997596;28;20062;-77
2022/04/24 03:00:21;;;;;;;5.70;4.20;;;;;;;17.42;28.41;99676.47;4987997;28;20050;-77
2022/04/24 03:02:48;;;;;;;5.72;4.47;;;;;;;17.36;28.62;99675.31;4996151;28;20069;-77
2022/04/24 03:05:17;;;;;;;5.60;4.40;;;;;;;17.37;28.49;99670.66;4984047;28;20042;-77
2022/04/24 03:07:45;;;;;;;6.22;4.90;;;;;;;17.34;28.49;99676.50;4985028;28;20129;-77
2022/04/24 03:10:12;;;;;;;5.10;4.47;;;;;;;17.30;28.37;99675.97;5010323;28;20070;-77
2022/04/24 03:12:41;;;;;;;5.05;4.28;;;;;;;17.29;28.88;99671.53;4992253;28;20455;-77
2022/04/24 03:15:09;;;;;;;6.28;4.72;;;;;;;17.26;28.45;99671.88;5009067;28;20125;-77
2022/04/24 03:17:36;;;;;;;5.10;4.40;;;;;;;17.22;28.61;99662.28;5014531;28;20062;-78
2022/04/24 03:20:06;;;;;;;5.85;4.28;;;;;;;17.19;28.91;99668.13;4980261;28;20191;-77
2022/04/24 03:22:33;;;;;;;5.18;4.50;;;;;;;17.17;28.75;99669.31;4994146;28;20133;-77
2022/04/24 03:25:01;;;;;;;6.10;5.15;;;;;;;17.17;28.72;99672.91;5008567;28;20168;-77
2022/04/24 03:27:27;;;;;;;5.70;4.38;;;;;;;17.15;28.83;99671.38;4997048;28;20050;-77
2022/04/24 03:29:54;;;;;;;5.57;4.45;;;;;;;17.12;28.87;99669.84;5000166;28;20140;-77
2022/04/24 03:32:21;;;;;;;5.88;4.57;;;;;;;17.08;29.05;99669.34;4999860;28;20111;-78
2022/04/24 03:34:50;;;;;;;5.97;4.75;;;;;;;17.08;28.84;99661.09;5000461;28;20392;-77
2022/04/24 03:37:17;;;;;;;5.72;4.60;;;;;;;17.04;28.73;99659.75;5009940;28;20098;-77
2022/04/24 03:39:44;;;;;;;7.82;5.55;;;;;;;17.00;28.80;99650.16;4993462;28;20062;-77
2022/04/24 03:42:11;;;;;;;6.95;5.10;;;;;;;17.01;29.03;99656.50;4996018;28;20516;-77
2022/04/24 03:44:37;;;;;;;6.72;4.68;;;;;;;16.96;28.87;99661.66;5007551;28;20141;-77
2022/04/24 03:47:05;;;;;;;5.53;4.50;;;;;;;16.93;28.88;99664.72;5002012;28;20137;-77
2022/04/24 03:49:32;;;;;;;5.78;4.38;;;;;;;16.88;29.00;99662.50;5005950;28;20112;-77
2022/04/24 03:51:59;;;;;;;5.75;4.78;;;;;;;16.84;28.81;99663.00;4996711;28;20046;-78
2022/04/24 03:54:26;;;;;;;6.05;5.00;;;;;;;16.82;29.08;99656.81;5001758;28;20077;-77
2022/04/24 03:56:52;;;;;;;5.32;4.80;;;;;;;16.77;29.27;99662.84;5003937;28;20111;-77
2022/04/24 03:59:19;;;;;;;5.35;4.53;;;;;;;16.79;29.05;99654.44;4981502;28;20084;-77
2022/04/24 04:01:45;;;;;;;6.28;4.93;;;;;;;16.74;28.91;99654.94;4996321;28;20125;-77
2022/04/24 04:04:12;;;;;;;6.50;5.22;;;;;;;16.74;29.22;99663.16;5008384;28;20068;-77
2022/04/24 04:06:39;;;;;;;5.97;4.88;;;;;;;16.71;28.92;99661.66;5004398;28;20038;-77
2022/04/24 04:09:05;;;;;;;6.15;5.03;;;;;;;16.71;29.22;99663.53;4988498;28;20513;-77
2022/04/24 04:11:32;;;;;;;5.43;4.68;;;;;;;16.66;29.16;99658.53;5006044;28;20054;-77
2022/04/24 04:13:58;;;;;;;6.00;4.90;;;;;;;16.66;29.62;99661.28;4981312;28;20058;-77
2022/04/24 04:16:25;;;;;;;6.47;5.03;;;;;;;16.59;29.61;99660.22;5007381;28;20074;-77
2022/04/24 04:18:52;;;;;;;7.10;5.25;;;;;;;16.58;29.76;99658.50;4978032;28;20108;-77
2022/04/24 04:21:19;;;;;;;6.68;5.60;;;;;;;16.57;29.26;99664.16;5006494;28;20116;-77
2022/04/24 04:23:45;;;;;;;6.75;5.20;;;;;;;16.57;29.33;99669.63;4985037;28;20054;-77
2022/04/24 04:26:12;;;;;;;6.43;5.28;;;;;;;16.57;29.43;99672.38;4996418;28;20054;-77
2022/04/24 04:28:39;;;;;;;6.13;5.13;;;;;;;16.55;29.47;99677.19;4990484;28;20406;-77
2022/04/24 04:31:05;;;;;;;6.35;5.38;;;;;;;16.51;29.67;99684.03;5001482;28;20085;-77
2022/04/24 04:33:32;;;;;;;7.85;5.75;;;;;;;16.48;29.72;99679.72;4987898;28;20096;-77
2022/04/24 04:35:58;;;;;;;6.93;5.50;;;;;;;16.45;29.93;99679.22;4985763;28;20076;-77
2022/04/24 04:38:25;;;;;;;6.40;5.45;;;;;;;16.41;29.41;99680.56;5005017;28;20144;-77
2022/04/24 04:40:52;;;;;;;6.25;4.90;;;;;;;16.37;29.80;99682.81;5007139;28;20133;-77
2022/04/24 04:43:18;;;;;;;6.53;5.18;;;;;;;16.38;30.01;99684.53;4986105;28;20050;-77
2022/04/24 04:45:45;;;;;;;6.93;5.05;;;;;;;16.33;30.23;99686.88;5006694;28;20096;-76
2022/04/24 04:48:12;;;;;;;6.20;5.30;;;;;;;16.30;29.96;99689.97;4997207;28;20050;-77
2022/04/24 04:50:38;;;;;;;7.05;5.28;;;;;;;16.33;29.88;99689.63;4996019;28;20081;-77
2022/04/24 04:53:05;;;;;;;5.70;5.03;;;;;;;16.27;30.25;99696.66;5001049;28;20081;-77
2022/04/24 04:55:32;;;;;;;6.50;5.28;;;;;;;16.26;30.20;99700.41;5000781;28;20057;-77
2022/04/24 04:57:58;;;;;;;7.47;6.07;;;;;;;16.26;30.05;99703.16;5002985;28;20078;-76
2022/04/24 05:00:25;;;;;;;6.30;5.38;;;;;;;16.25;30.34;99704.16;5006773;28;20081;-77
2022/04/24 05:02:53;;;;;;;5.85;4.45;;;;;;;16.23;30.24;99710.81;5003260;28;20746;-77
2022/04/24 05:05:20;;;;;;;7.45;5.95;;;;;;;16.22;30.50;99710.00;4995523;28;20552;-76
2022/04/24 05:07:47;;;;;;;6.68;5.38;;;;;;;16.24;29.95;99718.03;4987740;28;20081;-77
2022/04/24 05:10:13;;;;;;;7.68;6.28;;;;;;;16.21;30.53;99710.16;4998239;28;20088;-77
2022/04/24 05:12:40;;;;;;;6.60;5.72;;;;;;;16.20;30.39;99716.66;4984591;28;20097;-78
2022/04/24 05:15:08;;;;;;;6.30;5.38;;;;;;;16.19;30.48;99713.06;5004706;28;20137;-78
2022/04/24 05:17:36;;;;;;;7.30;5.65;;;;;;;16.20;30.71;99725.72;4992580;28;20080;-78
2022/04/24 05:20:04;;;;;;;7.35;5.95;;;;;;;16.18;30.52;99716.81;4985302;28;20087;-77
2022/04/24 05:22:31;;;;;;;6.82;5.70;;;;;;;16.17;30.68;99725.19;4988972;28;20133;-78
2022/04/24 05:24:58;;;;;;;7.80;5.88;;;;;;;16.14;31.07;99722.81;4996826;28;20448;-77
2022/04/24 05:27:27;;;;;;;7.63;6.10;;;;;;;16.18;30.94;99722.28;5000930;28;20043;-78
2022/04/24 05:29:54;;;;;;;8.15;6.38;;;;;;;16.17;30.86;99730.66;5009933;28;20096;-77
2022/04/24 05:32:20;;;;;;;7.32;6.18;;;;;;;16.22;31.10;99720.94;5000582;28;20141;-77
2022/04/24 05:34:48;;;;;;;7.80;6.07;;;;;;;16.26;30.99;99724.19;4981688;28;20076;-78
2022/04/24 05:37:14;;;;;;;7.13;5.68;;;;;;;16.26;31.16;99729.66;4998988;28;20141;-77
2022/04/24 05:39:41;;;;;;;9.05;6.40;;;;;;;16.32;31.07;99721.63;4985127;28;20445;-77
2022/04/24 05:42:10;;;;;;;7.70;6.40;;;;;;;16.32;31.20;99734.47;4990019;28;20089;-77
2022/04/24 05:44:36;;;;;;;6.97;5.70;;;;;;;16.34;31.26;99725.06;4983924;28;20076;-77
2022/04/24 05:47:04;;;;;;;8.05;6.47;;;;;;;16.41;31.00;99744.44;5001483;28;20452;-78
2022/04/24 05:49:30;;;;;;;8.40;6.70;;;;;;;16.40;31.16;99742.72;4992718;28;20144;-79
2022/04/24 05:51:57;;;;;;;7.57;6.18;;;;;;;16.45;31.08;99747.72;4988990;28;20108;-78
2022/04/24 05:54:23;;;;;;;7.65;6.68;;;;;;;16.51;31.42;99745.16;5005654;28;20054;-78
2022/04/24 05:56:50;;;;;;;7.75;6.05;;;;;;;16.51;31.29;99745.16;4992439;28;20129;-78
2022/04/24 05:59:16;;;;;;;7.85;6.25;;;;;;;16.54;31.04;99752.19;4973927;28;20145;-78
2022/04/24 06:01:43;;;;;;;7.68;6.05;;;;;;;16.61;31.38;99753.28;5009827;28;20096;-78
2022/04/24 06:04:09;;;;;;;7.47;6.03;;;;;;;16.65;31.14;99757.38;5009328;28;20053;-78
2022/04/24 06:06:36;;;;;;;7.43;6.47;;;;;;;16.68;31.07;99748.81;5003466;28;20053;-78
2022/04/24 06:09:03;;;;;;;7.32;6.00;;;;;;;16.69;31.33;99756.03;5001952;28;20478;-78
2022/04/24 06:11:29;;;;;;;9.30;6.47;;;;;;;16.71;30.84;99754.84;4991399;28;20108;-77
2022/04/24 06:13:56;;;;;;;7.80;6.60;;;;;;;16.71;31.10;99753.97;4977440;28;20125;-77
2022/04/24 06:16:23;;;;;;;7.50;6.18;;;;;;;16.74;30.77;99745.41;4974587;28;20054;-77
2022/04/24 06:18:49;;;;;;;7.75;6.13;;;;;;;16.74;31.13;99748.13;4973949;28;20061;-78
2022/04/24 06:21:16;;;;;;;7.05;6.28;;;;;;;16.72;31.05;99755.66;4973336;28;20038;-77
2022/04/24 06:23:43;;;;;;;7.75;6.70;;;;;;;16.75;31.33;99755.34;4978325;28;20139;-77
2022/04/24 06:26:09;;;;;;;7.78;5.95;;;;;;;16.78;31.09;99752.28;4996456;28;20490;-77
2022/04/24 06:28:36;;;;;;;7.13;5.78;;;;;;;16.75;30.91;99752.59;4981169;28;20133;-77
2022/04/24 06:31:02;;;;;;;9.13;6.80;;;;;;;16.77;31.15;99756.03;4996225;28;20582;-77
2022/04/24 06:33:32;;;;;;;6.80;6.05;;;;;;;16.84;30.83;99756.22;5001536;28;20441;-78
2022/04/24 06:36:01;;;;;;;7.32;6.07;;;;;;;16.81;31.09;99753.78;4996816;28;20043;-78
2022/04/24 06:38:28;;;;;;;9.50;6.22;;;;;;;16.84;31.19;99765.28;4998000;28;20445;-77
2022/04/24 06:40:54;;;;;;;7.93;6.15;;;;;;;16.87;31.29;99759.50;5005347;28;20112;-77
2022/04/24 06:43:22;;;;;;;7.38;5.55;;;;;;;16.92;31.38;99768.03;4978019;28;20054;-77
2022/04/24 06:45:49;;;;;;;8.27;6.05;;;;;;;16.94;31.21;99767.88;4992155;28;20062;-77
2022/04/24 06:48:16;;;;;;;8.35;6.50;;;;;;;16.96;31.33;99766.69;4992360;28;20070;-78
2022/04/24 06:50:45;;;;;;;7.20;6.22;;;;;;;17.01;31.54;99763.44;4987550;28;20050;-78
2022/04/24 06:53:20;;;;;;;7.47;5.90;;;;;;;17.07;31.33;99773.72;4996187;28;20430;-79
2022/04/24 06:55:49;;;;;;;7.13;6.13;;;;;;;17.08;31.29;99770.81;5006294;28;20053;-77
2022/04/24 06:58:17;;;;;;;8.30;6.80;;;;;;;17.07;31.64;99769.09;4991977;28;20082;-78
2022/04/24 07:01:12;;;;;;;7.10;5.95;;;;;;;17.18;31.24;99762.41;4999071;28;20073;-82
2022/04/24 07:03:53;;;;;;;6.60;5.90;;;;;;;17.26;31.63;99767.91;4954194;28;20618;-79
2022/04/24 07:06:28;;;;;;;7.45;6.45;;;;;;;17.38;31.40;99772.00;4963462;28;20123;-80
2022/04/24 07:08:55;;;;;;;8.30;6.63;;;;;;;17.45;31.41;99769.44;4954884;28;20053;-79
2022/04/24 07:11:24;;;;;;;7.65;6.38;;;;;;;17.68;31.38;99783.31;4971277;28;20066;-78
2022/04/24 07:13:51;;;;;;;7.35;6.30;;;;;;;17.73;31.57;99778.16;4950995;28;20616;-78
2022/04/24 07:16:18;;;;;;;8.27;6.20;;;;;;;17.95;31.38;99779.34;4959372;28;20043;-80
2022/04/24 07:18:48;;;;;;;8.75;6.30;;;;;;;18.13;30.72;99764.31;4935914;28;20055;-79
2022/04/24 07:21:14;;;;;;;7.47;5.88;;;;;;;18.23;30.86;99773.19;4931085;29;20055;-80
2022/04/24 07:23:41;;;;;;;7.53;6.15;;;;;;;18.42;30.29;99782.06;4949954;28;20078;-80
2022/04/24 07:26:07;;;;;;;7.25;5.75;;;;;;;18.57;30.28;99777.53;4965198;28;20514;-78
2022/04/24 07:28:34;;;;;;;8.25;6.60;;;;;;;18.72;29.93;99780.38;4957631;28;20596;-79
2022/04/24 07:31:01;;;;;;;7.40;6.32;;;;;;;18.83;29.95;99771.72;4938784;29;20063;-80
2022/04/24 07:33:28;;;;;;;6.82;5.85;;;;;;;18.97;29.71;99770.94;4945363;28;20142;-80
2022/04/24 07:35:57;;;;;;;9.65;7.25;;;;;;;19.10;29.23;99782.22;5002194;28;20104;-80
2022/04/24 07:38:24;;;;;;;7.95;6.05;;;;;;;19.11;29.66;99783.88;4986694;28;20054;-80
2022/04/24 07:40:51;;;;;;;7.78;6.28;;;;;;;19.21;29.34;99783.66;4978481;28;20082;-80
2022/04/24 07:43:18;;;;;;;7.47;5.80;;;;;;;19.29;29.52;99778.94;4993498;28;20053;-80
2022/04/24 07:45:49;;;;;;;6.18;5.28;;;;;;;19.39;29.12;99781.44;4982868;28;20049;-79
2022/04/24 07:48:22;;;;;;;8.77;6.18;;;;;;;19.40;29.31;99791.41;4995735;28;20474;-79
2022/04/24 07:50:51;;;;;;;6.22;5.50;;;;;;;19.52;28.76;99789.94;4994371;28;20450;-80
2022/04/24 07:53:19;;;;;;;7.00;5.60;;;;;;;19.61;28.97;99785.22;4992774;28;20425;-80
2022/04/24 07:55:50;;;;;;;7.50;6.15;;;;;;;19.64;29.07;99787.63;4998633;28;20046;-80
2022/04/24 07:58:17;;;;;;;7.75;5.72;;;;;;;19.67;28.64;99779.00;5009647;28;20054;-81
2022/04/24 08:00:45;;;;;;;6.80;6.10;;;;;;;19.73;28.72;99783.75;5008196;28;20097;-80
2022/04/24 08:03:13;;;;;;;8.20;5.72;;;;;;;19.82;28.16;99785.38;4996464;28;20148;-80
2022/04/24 08:05:50;;;;;;;6.63;5.88;;;;;;;19.87;27.79;99780.13;4974351;28;20042;-80
2022/04/24 08:08:18;;;;;;;8.65;6.38;;;;;;;19.83;28.32;99776.06;4973428;28;20581;-80
2022/04/24 08:10:53;;;;;;;7.03;5.93;;;;;;;19.87;27.34;99763.63;4972237;28;20514;-80
2022/04/24 08:13:24;;;;;;;8.15;5.95;;;;;;;19.95;27.99;99780.06;4942639;28;20054;-79
2022/04/24 08:15:51;;;;;;;8.38;6.15;;;;;;;19.94;28.34;99788.50;4941024;28;20082;-80
2022/04/24 08:18:35;;;;;;;7.32;5.90;;;;;;;19.98;27.76;99785.19;4952296;28;20133;-79
2022/04/24 08:21:02;;;;;;;7.68;6.53;;;;;;;19.96;28.20;99790.03;4990469;28;20081;-81
2022/04/24 08:23:29;;;;;;;7.20;5.85;;;;;;;20.02;27.78;99782.91;4953018;28;20121;-79
2022/04/24 08:25:59;;;;;;;7.18;5.80;;;;;;;20.09;27.85;99784.69;4994620;28;20378;-81
2022/04/24 08:28:28;;;;;;;7.15;5.75;;;;;;;20.13;28.09;99779.69;4987910;28;20102;-79
2022/04/24 08:30:57;;;;;;;8.52;6.15;;;;;;;20.16;27.97;99792.25;4994807;28;20054;-80
2022/04/24 08:33:24;;;;;;;5.95;5.30;;;;;;;20.24;28.06;99787.47;5011779;28;20065;-80
2022/04/24 08:35:58;;;;;;;6.95;5.43;;;;;;;20.26;27.98;99785.38;4997171;28;20389;-81
2022/04/24 08:38:30;;;;;;;8.15;5.97;;;;;;;20.33;27.97;99785.47;5012817;28;20100;-80
2022/04/24 08:41:10;;;;;;;6.90;5.97;;;;;;;20.41;27.69;99782.66;4976645;28;20506;-79
2022/04/24 08:43:37;;;;;;;7.78;6.40;;;;;;;20.42;27.97;99773.34;4994837;28;20074;-81
2022/04/24 08:46:08;;;;;;;7.05;6.18;;;;;;;20.55;27.28;99779.00;4983532;28;20081;-79
2022/04/24 08:48:40;;;;;;;8.00;6.20;;;;;;;20.59;27.50;99783.09;4981777;28;20057;-78
2022/04/24 08:51:10;;;;;;;7.47;6.28;;;;;;;20.57;27.21;99779.69;4972978;28;20047;-78
2022/04/24 08:53:42;;;;;;;8.55;6.82;;;;;;;20.59;27.38;99782.25;4962039;28;20050;-79
2022/04/24 08:56:38;;;;;;;7.25;5.97;;;;;;;20.68;26.89;99792.09;4964595;28;20607;-80
2022/04/24 08:59:08;;;;;;;6.78;5.70;;;;;;;20.67;27.12;99787.66;4959260;28;20053;-78
2022/04/24 09:01:45;;;;;;;7.63;5.93;;;;;;;20.79;26.70;99800.75;5001668;28;20057;-80
2022/04/24 09:04:15;;;;;;;8.25;6.38;;;;;;;20.77;26.73;99801.97;4989276;28;20390;-81
2022/04/24 09:06:42;;;;;;;8.57;6.50;;;;;;;20.82;27.38;99797.59;5004988;28;20080;-78
2022/04/24 09:09:09;;;;;;;7.30;6.15;;;;;;;20.91;27.28;99812.16;4959182;28;20090;-77
2022/04/24 09:11:38;;;;;;;8.10;5.82;;;;;;;20.96;26.93;99790.31;4987332;28;20050;-79
2022/04/24 09:14:15;;;;;;;8.13;6.50;;;;;;;21.12;26.82;99791.97;4986421;28;20806;-78
2022/04/24 09:16:55;;;;;;;7.18;5.90;;;;;;;21.11;26.78;99780.09;5006835;28;20057;-78
2022/04/24 09:19:23;;;;;;;7.18;5.75;;;;;;;21.18;26.84;99793.97;4978190;28;20148;-78
2022/04/24 09:21:53;;;;;;;7.68;6.15;;;;;;;21.25;26.87;99792.13;4999420;28;20073;-78
2022/04/24 09:24:20;;;;;;;7.35;5.85;;;;;;;21.26;27.24;99794.69;4984611;28;20140;-80
2022/04/24 09:26:55;;;;;;;7.93;5.82;;;;;;;21.41;26.87;99793.81;4994940;28;20046;-78
2022/04/24 09:29:23;;;;;;;7.47;5.88;;;;;;;21.43;26.81;99792.53;4992856;28;20132;-78
2022/04/24 09:31:56;;;;;;;7.20;6.00;;;;;;;21.49;26.54;99783.47;4978512;28;20536;-79
2022/04/24 09:34:32;;;;;;;7.75;6.22;;;;;;;21.60;26.06;99791.19;4986461;28;20070;-78
2022/04/24 09:37:04;;;;;;;8.80;7.15;;;;;;;21.55;26.25;99796.47;4966043;28;20392;-79
2022/04/24 09:39:36;;;;;;;9.57;7.05;;;;;;;21.63;26.03;99801.00;4966728;28;20054;-78
2022/04/24 09:42:09;;;;;;;7.90;6.40;;;;;;;21.62;26.22;99794.63;4998665;28;20085;-79
2022/04/24 09:44:45;;;;;;;7.97;6.00;;;;;;;21.67;25.54;99795.91;4980660;28;20169;-77
2022/04/24 09:47:34;;;;;;;8.30;5.88;;;;;;;21.70;25.67;99795.53;4993021;28;20593;-78
2022/04/24 09:50:02;;;;;;;7.63;6.22;;;;;;;21.74;26.11;99796.84;4991700;28;20046;-78
2022/04/24 09:52:31;;;;;;;6.78;6.07;;;;;;;21.77;25.71;99800.06;4970007;28;20120;-79
2022/04/24 09:54:58;;;;;;;8.93;6.60;;;;;;;21.78;25.91;99803.69;4970451;28;20058;-78
2022/04/24 09:57:32;;;;;;;7.65;6.00;;;;;;;21.88;26.03;99796.75;4988772;28;20070;-78
2022/04/24 10:00:02;;;;;;;7.93;6.30;;;;;;;21.90;26.27;99799.31;4948056;28;20049;-80
2022/04/24 10:02:30;;;;;;;7.72;6.53;;;;;;;21.95;25.81;99805.09;4984955;28;20065;-78
2022/04/24 10:04:58;;;;;;;9.25;7.05;;;;;;;22.05;25.24;99799.25;4983133;28;20057;-80
2022/04/24 10:07:28;;;;;;;8.13;6.53;;;;;;;22.09;25.13;99806.06;4995106;28;20138;-78
2022/04/24 10:09:55;;;;;;;7.22;5.38;;;;;;;22.12;25.62;99812.03;4996163;28;20058;-79
2022/04/24 10:12:29;;;;;;;8.05;6.90;;;;;;;22.21;25.02;99802.53;4975001;28;20058;-79
2022/04/24 10:15:12;;;;;;;6.88;5.90;;;;;;;22.24;24.68;99810.41;4959493;28;20070;-79
2022/04/24 10:18:07;;;;;;;7.03;6.13;;;;;;;22.24;24.77;99807.63;4977513;28;20562;-80
2022/04/24 10:20:46;;;;;;;7.35;6.47;;;;;;;22.31;25.15;99816.88;4960134;28;20055;-80
2022/04/24 10:23:13;;;;;;;7.68;6.22;;;;;;;22.40;25.36;99810.06;4983220;28;20133;-79
2022/04/24 10:25:45;;;;;;;7.78;6.38;;;;;;;22.49;24.96;99821.81;5004825;28;20050;-82
2022/04/24 10:28:22;;;;;;;7.28;6.53;;;;;;;22.51;23.85;99816.94;5007649;28;20452;-79
2022/04/24 10:31:03;;;;;;;7.95;6.38;;;;;;;22.57;25.00;99812.50;4985518;28;20053;-79
2022/04/24 10:33:36;;;;;;;6.80;5.97;;;;;;;22.63;24.36;99807.03;4979824;28;20112;-79
2022/04/24 10:36:15;;;;;;;8.23;6.55;;;;;;;22.69;24.36;99805.34;5006620;28;20049;-80
2022/04/24 10:38:50;;;;;;;7.72;6.60;;;;;;;22.69;24.45;99806.19;5007710;28;20584;-79
2022/04/24 10:41:38;;;;;;;8.00;6.25;;;;;;;22.70;24.52;99804.28;4976190;28;20143;-79
2022/04/24 10:44:09;;;;;;;8.15;6.93;;;;;;;22.78;24.03;99809.66;4983495;28;20157;-79
2022/04/24 10:46:40;;;;;;;7.07;6.20;;;;;;;22.82;23.92;99812.84;4989022;28;20126;-81
2022/04/24 10:49:17;;;;;;;8.80;6.55;;;;;;;22.77;24.31;99808.81;4974792;28;20773;-80
2022/04/24 10:51:57;;;;;;;7.43;6.38;;;;;;;22.81;23.97;99814.81;4996468;28;20525;-80
2022/04/24 10:54:41;;;;;;;8.52;6.80;;;;;;;22.76;23.29;99815.41;4988177;28;20100;-80
2022/04/24 10:57:23;;;;;;;7.75;6.78;;;;;;;22.86;23.56;99811.41;5009879;28;20049;-79
2022/04/24 10:59:52;;;;;;;7.60;6.72;;;;;;;22.86;24.19;99803.94;4990527;28;20051;-80
2022/04/24 11:02:30;;;;;;;8.52;6.65;;;;;;;22.91;23.22;99811.63;4994576;28;20137;-79
2022/04/24 11:05:01;;;;;;;7.55;6.38;;;;;;;22.97;24.30;99805.28;4982808;28;20054;-80
2022/04/24 11:07:29;;;;;;;8.30;6.57;;;;;;;23.00;23.94;99810.38;4997107;28;20409;-79
2022/04/24 11:10:21;;;;;;;8.00;5.65;;;;;;;23.08;24.18;99811.03;4999232;28;20058;-83
2022/04/24 11:12:51;;;;;;;8.00;6.80;;;;;;;23.13;23.96;99805.75;4995918;28;20565;-76
2022/04/24 11:15:18;;;;;;;7.97;5.55;;;;;;;23.12;24.12;99815.13;4979513;28;20513;-73
2022/04/24 11:17:45;;;;;;;7.13;5.45;;;;;;;23.19;23.75;99798.50;4993505;28;20445;-73
2022/04/24 11:20:15;;;;;;;6.85;6.00;;;;;;;23.27;22.91;99798.31;4998843;28;20481;-73
2022/04/24 11:22:55;;;;;;;6.00;5.03;;;;;;;23.29;23.59;99810.03;4992141;28;20544;-73
2022/04/24 11:25:24;;;;;;;7.45;5.40;;;;;;;23.31;22.96;99799.59;4990333;28;20132;-73
2022/04/24 11:27:59;;;;;;;8.23;6.00;;;;;;;23.35;22.31;99800.88;4996159;28;20042;-72
2022/04/24 11:30:37;;;;;;;7.22;5.68;;;;;;;23.40;22.65;99794.69;4991436;28;20066;-73
2022/04/24 11:33:05;;;;;;;6.82;5.65;;;;;;;23.42;22.91;99810.06;4972739;28;20072;-73
2022/04/24 11:35:37;;;;;;;6.32;5.30;;;;;;;23.44;22.53;99807.94;4975746;28;20393;-74
2022/04/24 11:38:08;;;;;;;7.10;5.35;;;;;;;23.50;22.32;99807.13;4994245;28;20141;-74
2022/04/24 11:40:45;;;;;;;6.97;5.63;;;;;;;23.52;22.32;99818.00;4972669;28;20081;-73
2022/04/24 11:43:16;;;;;;;6.07;5.28;;;;;;;23.53;22.54;99797.53;4996771;28;20050;-74